PWSweather.com
Personal Weather Stations
Station Observations

AwhituWaiuku, CA 268400

Lat: -37.058, Lon: -174.6346

Elevation: 250

Station Type: Personal

http://www.weather-display.com/windy/gb/grahamsbeach.htm

Latest ConditionsUpdated 11:00:12 PM GMT-12:48 Saturday, May 23, 2015
Currently Today's Max Today's Min Today's Average
Temperature 55.5°F13.1°C 57.7°F14.3°C 54.2°F12.3°C 56.3°F13.5°C
Dew Point 50.4°F10.2°C 50.5°F10.3°C 43.5°F6.4°C 48.6°F9.2°C
Winds 26.5 mph WSW42.6 kmh WSW 34.5 mph WSW55.5 kmh WSW - 24.7 mph 39.8 kmh
Wind Gusts 34.5 mph55.5 kmh 49.5 mph79.7 kmh - -
Humidity 83% 84% 63% 76%
Pressure 29.69 in1005.4 mb 29.69 in1005.4 mb 29.34 in993.6 mb -
Precipitation - 0.06 in1.5 mm - -
Hour Temp Dew Point Humidity Winds Wind Gusts Pressure Precip Precip Rate Daily Precip Total
11:00 PM 55.5°F13.1°C 50.4°F10.2°C 83% 26.5 mph WSW42.6 kmh WSW 34.5 mph55.5 kmh 29.69 in1005.4 mb - 0.01 in0.3 mm 0.06 in1.5 mm
10:30 PM 55.0°F12.8°C 48.3°F9.1°C 78% 21.9 mph WSW35.2 kmh WSW 36.8 mph59.2 kmh 29.69 in1005.4 mb - 0.00 in0.0 mm 0.05 in1.3 mm
10:00 PM 56.9°F13.8°C 49.1°F9.5°C 75% 26.5 mph SW42.6 kmh SW 34.5 mph55.5 kmh 29.69 in1005.4 mb - 0.00 in0.0 mm 0.05 in1.3 mm
09:30 PM 56.7°F13.7°C 48.9°F9.4°C 75% 26.5 mph SW42.6 kmh SW 32.2 mph51.8 kmh 29.69 in1005.4 mb - 0.00 in0.0 mm 0.05 in1.3 mm
09:00 PM 55.3°F12.9°C 49.5°F9.7°C 81% 32.2 mph WSW51.8 kmh WSW 43.7 mph70.3 kmh 29.68 in1005.1 mb - 0.02 in0.5 mm 0.05 in1.3 mm
08:30 PM 56.6°F13.7°C 49.5°F9.7°C 77% 31.1 mph WSW50.1 kmh WSW 35.7 mph57.5 kmh 29.68 in1005.1 mb - 0.00 in0.0 mm 0.03 in0.8 mm
08:00 PM 56.9°F13.8°C 49.4°F9.7°C 76% 29.9 mph SW48.1 kmh SW 38.0 mph61.2 kmh 29.68 in1005.1 mb - 0.00 in0.0 mm 0.03 in0.8 mm
07:30 PM 57.0°F13.9°C 49.5°F9.7°C 76% 29.9 mph SW48.1 kmh SW 33.4 mph53.8 kmh 29.66 in1004.4 mb - 0.00 in0.0 mm 0.03 in0.8 mm
07:00 PM 56.9°F13.8°C 50.5°F10.3°C 79% 24.2 mph SW38.9 kmh SW 29.9 mph48.1 kmh 29.66 in1004.4 mb - 0.00 in0.0 mm 0.03 in0.8 mm
06:30 PM 56.8°F13.8°C 50.4°F10.2°C 79% 27.6 mph SW44.4 kmh SW 41.4 mph66.6 kmh 29.65 in1004.1 mb - 0.00 in0.0 mm 0.03 in0.8 mm
06:00 PM 56.9°F13.8°C 49.8°F9.9°C 77% 33.4 mph SW53.8 kmh SW 44.9 mph72.3 kmh 29.64 in1003.7 mb - 0.00 in0.0 mm 0.03 in0.8 mm
05:30 PM 55.8°F13.2°C 50.1°F10.1°C 81% 33.4 mph WSW53.8 kmh WSW 42.6 mph68.6 kmh 29.64 in1003.7 mb - 0.00 in0.0 mm 0.03 in0.8 mm
05:00 PM 57.2°F14.0°C 48.6°F9.2°C 73% 34.5 mph WSW55.5 kmh WSW 49.5 mph79.7 kmh 29.64 in1003.7 mb - 0.00 in0.0 mm 0.03 in0.8 mm
04:30 PM 57.2°F14.0°C 46.7°F8.2°C 68% 26.5 mph SW42.6 kmh SW 38.0 mph61.2 kmh 29.64 in1003.7 mb - 0.00 in0.0 mm 0.03 in0.8 mm
04:00 PM 57.2°F14.0°C 49.0°F9.4°C 74% 27.6 mph SW44.4 kmh SW 38.0 mph61.2 kmh 29.63 in1003.4 mb - 0.00 in0.0 mm 0.03 in0.8 mm
03:30 PM 56.9°F13.8°C 49.4°F9.7°C 76% 25.3 mph SW40.7 kmh SW 36.8 mph59.2 kmh 29.63 in1003.4 mb - 0.00 in0.0 mm 0.03 in0.8 mm
03:00 PM 56.5°F13.6°C 50.4°F10.2°C 80% 26.5 mph SW42.6 kmh SW 49.5 mph79.7 kmh 29.63 in1003.4 mb - 0.00 in0.0 mm 0.03 in0.8 mm
02:30 PM 55.4°F13.0°C 50.0°F10.0°C 82% 29.9 mph WSW48.1 kmh WSW 38.0 mph61.2 kmh 29.63 in1003.4 mb - 0.02 in0.5 mm 0.03 in0.8 mm
02:00 PM 55.5°F13.1°C 49.1°F9.5°C 79% 24.2 mph SW38.9 kmh SW 28.8 mph46.3 kmh 29.63 in1003.4 mb - 0.00 in0.0 mm 0.02 in0.5 mm
01:30 PM 54.6°F12.6°C 49.9°F9.9°C 84% 21.9 mph WSW35.2 kmh WSW 27.6 mph44.4 kmh 29.63 in1003.4 mb - 0.01 in0.3 mm 0.02 in0.5 mm
01:00 PM 56.4°F13.6°C 48.6°F9.2°C 75% 27.6 mph WSW44.4 kmh WSW 27.6 mph44.4 kmh 29.62 in1003.0 mb - 0.00 in0.0 mm 0.01 in0.3 mm
12:30 PM 57.7°F14.3°C 49.5°F9.7°C 74% 23.0 mph WSW37.0 kmh WSW 34.5 mph55.5 kmh 29.62 in1003.0 mb - 0.00 in0.0 mm 0.01 in0.3 mm
12:00 PM 54.7°F12.6°C 50.0°F10.0°C 84% 20.7 mph WSW33.3 kmh WSW 31.1 mph50.1 kmh 29.63 in1003.4 mb - 0.01 in0.3 mm 0.01 in0.3 mm
11:30 AM 56.7°F13.7°C 49.5°F9.7°C 77% 26.5 mph S42.6 kmh S 34.5 mph55.5 kmh 29.62 in1003.0 mb - 0.00 in0.0 mm 0.00 in0.0 mm
11:00 AM 56.0°F13.3°C 48.5°F9.2°C 76% 19.6 mph SW31.5 kmh SW 31.1 mph50.1 kmh 29.62 in1003.0 mb - 0.00 in0.0 mm 0.00 in0.0 mm
10:30 AM 57.0°F13.9°C 48.4°F9.1°C 73% 19.6 mph S31.5 kmh S 33.4 mph53.8 kmh 29.62 in1003.0 mb - 0.00 in0.0 mm 0.00 in0.0 mm
10:00 AM 56.9°F13.8°C 49.1°F9.5°C 75% 15.0 mph WSW24.1 kmh WSW 26.5 mph42.6 kmh 29.60 in1002.4 mb - 0.00 in0.0 mm 0.00 in0.0 mm
09:30 AM 55.7°F13.2°C 48.9°F9.4°C 78% 13.8 mph S22.2 kmh S 25.3 mph40.7 kmh 29.59 in1002.0 mb - 0.00 in0.0 mm 0.00 in0.0 mm
09:00 AM 55.7°F13.2°C 46.0°F7.8°C 70% 21.9 mph SW35.2 kmh SW 27.6 mph44.4 kmh 29.59 in1002.0 mb - 0.00 in0.0 mm 0.00 in0.0 mm
08:30 AM 55.3°F12.9°C 48.2°F9.0°C 77% 18.4 mph W29.6 kmh W 28.8 mph46.3 kmh 29.57 in1001.4 mb - 0.00 in0.0 mm 0.00 in0.0 mm
08:00 AM 54.5°F12.5°C 48.5°F9.2°C 80% 24.2 mph S38.9 kmh S 27.6 mph44.4 kmh 29.56 in1001.0 mb - 0.00 in0.0 mm 0.00 in0.0 mm
07:30 AM 54.2°F12.3°C 47.8°F8.8°C 79% 16.1 mph WSW25.9 kmh WSW 21.9 mph35.2 kmh 29.54 in1000.3 mb - 0.00 in0.0 mm 0.00 in0.0 mm
06:30 AM 56.3°F13.5°C 45.9°F7.7°C 68% 16.1 mph S25.9 kmh S 27.6 mph44.4 kmh 29.50 in999.0 mb - 0.00 in0.0 mm 0.00 in0.0 mm
06:00 AM 56.2°F13.4°C 44.6°F7.0°C 65% 13.8 mph SW22.2 kmh SW 17.3 mph27.8 kmh 29.50 in999.0 mb - 0.00 in0.0 mm 0.00 in0.0 mm
05:30 AM 55.9°F13.3°C 43.5°F6.4°C 63% 25.3 mph SW40.7 kmh SW 32.2 mph51.8 kmh 29.48 in998.3 mb - 0.00 in0.0 mm 0.00 in0.0 mm
05:00 AM 55.9°F13.3°C 44.7°F7.1°C 66% 23.0 mph SW37.0 kmh SW 35.7 mph57.5 kmh 29.47 in998.0 mb - 0.00 in0.0 mm 0.00 in0.0 mm
04:30 AM 56.1°F13.4°C 45.7°F7.6°C 68% 20.7 mph SW33.3 kmh SW 26.5 mph42.6 kmh 29.46 in997.6 mb - 0.00 in0.0 mm 0.00 in0.0 mm
04:00 AM 56.3°F13.5°C 47.0°F8.3°C 71% 21.9 mph SW35.2 kmh SW 32.2 mph51.8 kmh 29.44 in997.0 mb - 0.00 in0.0 mm 0.00 in0.0 mm
03:30 AM 56.7°F13.7°C 49.2°F9.6°C 76% 25.3 mph SW40.7 kmh SW 31.1 mph50.1 kmh 29.43 in996.6 mb - 0.00 in0.0 mm 0.00 in0.0 mm
03:00 AM 56.8°F13.8°C 49.7°F9.8°C 77% 32.2 mph SW51.8 kmh SW 41.4 mph66.6 kmh 29.42 in996.3 mb - 0.00 in0.0 mm 0.00 in0.0 mm
02:30 AM 57.3°F14.1°C 48.3°F9.1°C 72% 25.3 mph SW40.7 kmh SW 36.8 mph59.2 kmh 29.40 in995.6 mb - 0.00 in0.0 mm 0.00 in0.0 mm
02:00 AM 57.4°F14.1°C 49.2°F9.6°C 74% 24.2 mph SW38.9 kmh SW 31.1 mph50.1 kmh 29.39 in995.3 mb - 0.00 in0.0 mm 0.00 in0.0 mm
01:30 AM 57.3°F14.1°C 49.1°F9.5°C 74% 24.2 mph SSW38.9 kmh SSW 26.5 mph42.6 kmh 29.38 in994.9 mb - 0.00 in0.0 mm 0.00 in0.0 mm
01:00 AM 57.1°F13.9°C 49.9°F9.9°C 77% 27.6 mph SSW44.4 kmh SSW 38.0 mph61.2 kmh 29.37 in994.6 mb - 0.00 in0.0 mm 0.00 in0.0 mm
12:30 AM 56.2°F13.4°C 48.7°F9.3°C 76% 24.2 mph SSW38.9 kmh SSW 32.2 mph51.8 kmh 29.36 in994.2 mb - 0.00 in0.0 mm 0.00 in0.0 mm
12:00 AM 55.7°F13.2°C 48.6°F9.2°C 77% 26.5 mph SW42.6 kmh SW 38.0 mph61.2 kmh 29.34 in993.6 mb - 0.00 in0.0 mm 0.00 in0.0 mm